Airfield :
LOGIN :

Register | Disclaimer

   EN    FR    IT 

 










Legend :    VFR   Marginal VFR   IFR   Intensive IFR   Very Intensive IFR
Visi :
Ceiling :
>= 8 km
>= 3000ft
5 to 8 km
1000 to 3000 ft
1500m to 5 km
500 to 1000 ft
800 to 1500m
200 to 500 ft
< 800m
< 200 ft
Symbols :   Thunderstorms  Fog  Heavy snow  Heavy precipitations  Wind > 20 kt
SIGMETs :     Misc.  Thunderstorms  Icing  Turbulence  Mountain Waves  Volcanic Ashes







- Airport Elevation : 989 ft
- IATA code : TRN


LIMF - Torino Caselle

CURRENT METAR :
  • 252250Z 27006KT 8000 BKN050 M03/M05 Q1014

EXPIRED METARs :
  • 252220Z 25006KT 7000 BKN050 M03/M05 Q1014
  • 252150Z 28007KT 7000 SCT045 M03/M05 Q1014
  • 252120Z 28005KT 7000 BKN050 M03/M05 Q1014
  • 252050Z 30006KT 6000 BKN045 M02/M05 Q1014
  • 252020Z 32004KT 6000 BKN045 M02/M06 Q1015

TAF TAF LIMF
Valid from the 25 at 18:00 until the 26 at 18:00 UTC


251700Z 2518/2618 05008KT 1000 SN OVC004
BECMG 2519/2521 4000 BR SCT020 BKN060
No reported NOTAMs for that airfield.
3 SIGMETs reported for the Milano FIR (LIMM) :
 
Embedded thunderstorms
LIMM SIGMET 18 VALID 252230/260230 LIIP
LIMM MILANO FIR EMBD TS FCST WI N4359 E00854 - N4331 E01008 - N4311 E00945 - N4341 E00750 - N4359 E00854 TOP FL240 STNR NC=
Severe icing
LIMM SIGMET 17 VALID 252230/260230 LIIP
LIMM MILANO FIR SEV ICE FCST S OF LINE N4420 E00638 - N4450 E01323 FL030/120 MOV S WKN=
Severe turbulence
LIMM SIGMET 16 VALID 252230/260230 LIIP
LIMM MILANO FIR SEV TURB FCST WI N4636 E01341 - N4536 E01354 - N4509 E01302 - N4347 E01400 - N4328 E01319 - N4428 E01100 - N4534 E01058 - N4636 E01341 SFC/FL060 STNR NC=



MET'MAP, your aeronautical weather chart ! - Copyright ORBIFLY December 2007 - Disclaimer

ORBIFLY MET'MAP TEAM :

Programming & Development : Alexandra Zaïnal
Concept & Development : Baudouin d'Aumeries
Co-Development & Prog : Marc-Olivier Méhu
Technical & hardware support : Manuel Goepfert

Contact : metmap@orbifly.com




SOURCES & CREDITS :

   NOAA